Terminal Aerodrome Forecast
Issued by NWS Grand Forks, ND

Home | Current Version | Previous Version | Text Only | Print | Product List | Glossary On
Versions: 1 2 3 4 5 6 7 8 9 10 11 12 13 14 15 16 17 18 19 20
000
FTUS43 KFGF 220520
TAFFAR
TAF
KFAR 220520Z 2206/2306 13006KT P6SM SCT045
     FM221100 15008KT P6SM BKN030
     FM222000 15008KT P6SM BKN040
     FM230100 18006KT P6SM BKN040
     FM230300 25007KT P6SM BKN015
     FM230500 31008KT P6SM BKN010=

USA.gov is the U.S. government's official web portal to all federal, state and local government web resources and services.